createdAt,value
2019-03-04T00:01:58.247Z,11.60
2019-03-04T00:04:33.330Z,11.61
2019-03-04T00:07:08.099Z,11.66
2019-03-04T00:09:42.991Z,11.61
2019-03-04T00:12:17.886Z,11.63
2019-03-04T00:14:55.196Z,11.57
2019-03-04T00:17:30.734Z,11.69
2019-03-04T00:20:06.255Z,11.68
2019-03-04T00:22:44.688Z,11.72
2019-03-04T00:25:19.570Z,11.79
2019-03-04T00:27:54.460Z,11.80
2019-03-04T00:30:29.371Z,11.78
2019-03-04T00:33:04.812Z,11.92
2019-03-04T00:35:39.852Z,11.94
2019-03-04T00:38:18.010Z,11.89
2019-03-04T00:40:52.925Z,12.01
2019-03-04T00:43:28.193Z,12.01
2019-03-04T00:46:03.166Z,12.06
2019-03-04T00:48:38.119Z,12.01
2019-03-04T00:51:13.011Z,12.16
2019-03-04T00:53:47.872Z,11.98
2019-03-04T00:56:22.866Z,11.89
2019-03-04T00:58:57.810Z,11.82
2019-03-04T01:01:32.804Z,11.86
2019-03-04T01:04:30.424Z,11.73
2019-03-04T01:07:19.563Z,11.68
2019-03-04T01:09:54.406Z,11.68
2019-03-04T01:12:29.316Z,11.61
2019-03-04T01:15:04.278Z,11.67
2019-03-04T01:17:39.163Z,11.74
2019-03-04T01:20:16.130Z,11.67
2019-03-04T01:22:51.096Z,11.65
2019-03-04T01:25:25.840Z,11.66
2019-03-04T01:28:00.740Z,11.64
2019-03-04T01:30:35.608Z,11.57
2019-03-04T01:33:10.386Z,11.69
2019-03-04T01:35:45.163Z,11.73
2019-03-04T01:38:20.078Z,11.76
2019-03-04T01:40:54.914Z,11.79
2019-03-04T01:43:29.813Z,11.76
2019-03-04T01:46:05.688Z,11.82
2019-03-04T01:48:43.550Z,11.79
2019-03-04T01:51:18.510Z,11.89
2019-03-04T01:53:53.487Z,11.99
2019-03-04T01:56:28.361Z,12.05
2019-03-04T01:59:03.286Z,12.07
2019-03-04T02:01:38.131Z,12.10
2019-03-04T02:04:13.039Z,12.29
2019-03-04T02:06:47.899Z,12.33
2019-03-04T02:09:24.014Z,12.32
2019-03-04T02:11:58.892Z,12.29
2019-03-04T02:14:33.773Z,12.22
2019-03-04T02:17:08.535Z,12.24
2019-03-04T02:19:43.521Z,12.29
2019-03-04T02:22:18.381Z,12.28
2019-03-04T02:24:53.277Z,12.27
2019-03-04T02:27:43.819Z,12.34
2019-03-04T02:30:15.849Z,12.37
2019-03-04T02:32:50.706Z,12.38
2019-03-04T02:35:29.009Z,12.31
2019-03-04T02:38:03.849Z,12.30
2019-03-04T02:40:38.637Z,12.27
2019-03-04T02:43:13.575Z,12.35
2019-03-04T02:45:48.480Z,12.36
2019-03-04T02:48:23.339Z,12.41
2019-03-04T02:50:58.267Z,12.37
2019-03-04T02:53:33.235Z,12.46
2019-03-04T02:56:08.188Z,12.46
2019-03-04T02:58:43.068Z,12.46
2019-03-04T03:01:18.924Z,12.43
2019-03-04T03:03:53.804Z,12.43
2019-03-04T03:06:33.495Z,12.47
2019-03-04T03:09:12.114Z,12.34
2019-03-04T03:11:50.784Z,12.37
2019-03-04T03:14:26.554Z,12.42
2019-03-04T03:17:01.411Z,12.42
2019-03-04T03:19:36.270Z,12.42
2019-03-04T03:22:11.134Z,12.33
2019-03-04T03:24:47.005Z,12.33
2019-03-04T03:27:21.861Z,12.37
2019-03-04T03:29:56.622Z,12.31
2019-03-04T03:32:31.467Z,12.28
2019-03-04T03:35:08.501Z,12.31
2019-03-04T03:37:44.903Z,12.33
2019-03-04T03:40:19.809Z,12.42
2019-03-04T03:42:54.727Z,12.43
2019-03-04T03:45:29.505Z,12.23
2019-03-04T03:48:04.689Z,11.82
2019-03-04T03:50:39.482Z,11.40
2019-03-04T03:53:14.331Z,11.22
2019-03-04T03:55:49.153Z,11.13
2019-03-04T03:58:25.172Z,11.09
2019-03-04T04:01:00.326Z,11.17
2019-03-04T04:03:35.244Z,11.22
2019-03-04T04:06:10.279Z,11.43
2019-03-04T04:08:45.042Z,11.48
2019-03-04T04:11:37.385Z,11.53
2019-03-04T04:14:12.246Z,11.61
2019-03-04T04:16:47.133Z,11.64
2019-03-04T04:19:25.253Z,11.68
2019-03-04T04:22:00.126Z,11.68
2019-03-04T04:24:35.846Z,11.66
2019-03-04T04:27:10.754Z,11.59
2019-03-04T04:29:45.897Z,11.61
2019-03-04T04:32:20.790Z,11.54
2019-03-04T04:34:55.592Z,11.51
2019-03-04T04:37:30.633Z,11.54
2019-03-04T04:40:05.701Z,11.61
2019-03-04T04:42:40.524Z,11.53
2019-03-04T04:45:15.405Z,11.66
2019-03-04T04:47:50.356Z,11.67
2019-03-04T04:50:25.549Z,11.78
2019-03-04T04:53:07.229Z,11.79
2019-03-04T04:55:42.069Z,11.82
2019-03-04T04:58:16.887Z,11.91
2019-03-04T05:00:51.763Z,12.05
2019-03-04T05:03:26.657Z,12.11
2019-03-04T05:06:07.691Z,12.19
2019-03-04T05:08:44.087Z,12.12
2019-03-04T05:11:18.855Z,12.13
2019-03-04T05:13:53.768Z,12.12
2019-03-04T05:16:29.933Z,12.10
2019-03-04T05:19:04.708Z,12.11
2019-03-04T05:21:39.608Z,12.06
2019-03-04T05:24:14.489Z,12.10
2019-03-04T05:26:49.361Z,12.10
2019-03-04T05:29:24.779Z,12.17
2019-03-04T05:31:59.681Z,12.15
2019-03-04T05:34:34.597Z,12.23
2019-03-04T05:37:09.489Z,12.27
2019-03-04T05:39:44.339Z,12.20
2019-03-04T05:42:19.224Z,12.20
2019-03-04T05:44:54.125Z,12.18
2019-03-04T05:47:29.009Z,12.19
2019-03-04T05:50:03.967Z,12.18
2019-03-04T05:52:38.803Z,12.27
2019-03-04T05:55:15.293Z,12.21
2019-03-04T05:57:50.175Z,12.31
2019-03-04T06:00:26.439Z,12.29
2019-03-04T06:03:02.449Z,12.24
2019-03-04T06:05:40.835Z,12.25
2019-03-04T06:08:15.651Z,12.20
2019-03-04T06:10:51.449Z,12.24
2019-03-04T06:13:26.373Z,12.12
2019-03-04T06:16:02.101Z,12.14
2019-03-04T06:18:37.000Z,12.07
2019-03-04T06:21:11.939Z,12.08
2019-03-04T06:23:49.019Z,12.09
2019-03-04T06:26:24.831Z,12.02
2019-03-04T06:28:59.929Z,12.06
2019-03-04T06:31:34.867Z,12.20
2019-03-04T06:34:09.641Z,12.14
2019-03-04T06:36:44.391Z,11.99
2019-03-04T06:39:22.041Z,12.00
2019-03-04T06:41:57.077Z,11.93
2019-03-04T06:44:31.983Z,11.89
2019-03-04T06:47:06.905Z,12.01
2019-03-04T06:49:41.810Z,12.18
2019-03-04T06:52:16.825Z,12.27
2019-03-04T06:55:43.289Z,12.24
2019-03-04T06:58:18.168Z,12.34
2019-03-04T07:01:08.006Z,12.28
2019-03-04T07:03:49.047Z,12.24
2019-03-04T07:06:23.963Z,12.28
2019-03-04T07:09:15.010Z,12.29
2019-03-04T07:11:52.343Z,12.38
2019-03-04T07:14:27.423Z,12.43
2019-03-04T07:17:02.343Z,12.44
2019-03-04T07:19:39.813Z,12.45
2019-03-04T07:22:14.731Z,12.28
2019-03-04T07:24:49.662Z,9.59
2019-03-04T07:27:24.543Z,8.56
2019-03-04T07:29:59.449Z,8.16
2019-03-04T07:32:34.301Z,8.08
2019-03-04T07:35:10.106Z,7.92
2019-03-04T07:37:44.996Z,7.86
2019-03-04T07:40:19.832Z,7.77
2019-03-04T07:42:54.764Z,7.76
2019-03-04T07:45:30.729Z,7.79
2019-03-04T07:48:05.552Z,7.83
2019-03-04T07:50:40.415Z,7.76
2019-03-04T07:53:16.283Z,7.66
2019-03-04T07:55:51.160Z,7.64
2019-03-04T07:58:26.129Z,7.62
2019-03-04T08:01:01.109Z,7.63
2019-03-04T08:03:37.593Z,7.66
2019-03-04T08:06:15.586Z,7.72
2019-03-04T08:09:47.003Z,7.71
2019-03-04T08:13:14.421Z,7.73
2019-03-04T08:15:53.300Z,7.74
2019-03-04T08:18:28.418Z,7.84
2019-03-04T08:21:03.632Z,7.86
2019-03-04T08:23:38.743Z,7.82
2019-03-04T08:26:14.472Z,7.83
2019-03-04T08:28:49.383Z,7.85
2019-03-04T08:31:24.231Z,7.87
2019-03-04T08:33:59.121Z,7.94
2019-03-04T08:36:34.138Z,8.00
2019-03-04T08:39:12.634Z,8.06
2019-03-04T08:41:47.537Z,8.13
2019-03-04T08:44:22.498Z,8.19
2019-03-04T08:46:57.335Z,8.38
2019-03-04T08:49:32.677Z,8.43
2019-03-04T08:52:09.377Z,8.35
2019-03-04T08:54:44.361Z,8.39
2019-03-04T08:57:19.377Z,8.43
2019-03-04T08:59:55.229Z,8.41
2019-03-04T09:02:30.415Z,8.52
2019-03-04T09:05:08.762Z,8.62
2019-03-04T09:07:43.874Z,8.69
2019-03-04T09:10:30.643Z,8.63
2019-03-04T09:13:07.557Z,8.62
2019-03-04T09:15:42.525Z,8.65
2019-03-04T09:18:17.367Z,8.80
2019-03-04T09:20:52.421Z,8.75
2019-03-04T09:23:28.182Z,8.75
2019-03-04T09:26:09.146Z,8.87
2019-03-04T09:28:44.098Z,8.94
2019-03-04T09:31:20.718Z,9.02
2019-03-04T09:33:56.351Z,8.92
2019-03-04T09:36:31.344Z,8.88
2019-03-04T09:39:10.038Z,8.87
2019-03-04T09:41:45.872Z,8.85
2019-03-04T09:44:20.860Z,8.84
2019-03-04T09:46:55.813Z,8.85
2019-03-04T09:49:32.304Z,8.91
2019-03-04T09:52:09.896Z,8.95
2019-03-04T09:54:44.832Z,8.95
2019-03-04T09:57:19.749Z,8.98
2019-03-04T09:59:55.402Z,9.03
2019-03-04T10:02:43.973Z,9.08
2019-03-04T10:06:15.172Z,9.21
2019-03-04T10:09:12.504Z,9.36
2019-03-04T10:12:21.728Z,9.69
2019-03-04T10:15:39.296Z,9.39
2019-03-04T10:18:52.447Z,9.17
2019-03-04T10:21:57.740Z,8.74
2019-03-04T10:25:01.191Z,8.45
2019-03-04T10:28:46.472Z,8.25
2019-03-04T10:31:51.268Z,8.27
2019-03-04T10:34:55.145Z,8.14
2019-03-04T10:38:33.548Z,8.11
2019-03-04T10:41:49.299Z,8.06
2019-03-04T10:44:59.410Z,8.12
2019-03-04T10:47:34.308Z,8.20
2019-03-04T10:50:10.608Z,8.28
2019-03-04T10:52:45.636Z,8.20
2019-03-04T10:55:22.176Z,7.99
2019-03-04T10:57:56.950Z,7.95
2019-03-04T11:00:32.607Z,7.99
2019-03-04T11:03:07.962Z,8.05
2019-03-04T11:05:44.134Z,7.98
2019-03-04T11:08:19.111Z,8.03
2019-03-04T11:10:55.232Z,8.09
2019-03-04T11:13:31.853Z,8.15
2019-03-04T11:16:07.062Z,8.41
2019-03-04T11:18:42.020Z,8.43
2019-03-04T11:21:16.989Z,8.22
2019-03-04T11:23:52.378Z,8.24
2019-03-04T11:26:27.674Z,8.44
2019-03-04T11:29:04.713Z,8.45
2019-03-04T11:31:39.848Z,8.40
2019-03-04T11:34:15.769Z,8.39
2019-03-04T11:36:51.521Z,8.44
2019-03-04T11:39:47.412Z,8.50
2019-03-04T11:42:22.366Z,8.69
2019-03-04T11:44:57.335Z,9.14
2019-03-04T11:47:32.598Z,9.59
2019-03-04T11:50:11.254Z,9.66
2019-03-04T11:52:46.418Z,9.27
2019-03-04T11:55:23.270Z,9.30
2019-03-04T11:57:58.268Z,9.55
2019-03-04T12:00:51.502Z,9.84
2019-03-04T12:03:27.122Z,9.72
2019-03-04T12:06:02.879Z,9.75
2019-03-04T12:08:40.962Z,9.55
2019-03-04T12:11:15.906Z,9.25
2019-03-04T12:13:51.910Z,8.98
2019-03-04T12:16:26.924Z,8.60
2019-03-04T12:19:01.866Z,8.11
2019-03-04T12:21:37.017Z,7.66
2019-03-04T12:24:12.018Z,7.65
2019-03-04T12:26:46.928Z,7.93
2019-03-04T12:29:22.202Z,7.83
2019-03-04T12:32:16.094Z,7.83
2019-03-04T12:34:50.874Z,7.91
2019-03-04T12:37:25.754Z,8.19
2019-03-04T12:40:00.994Z,8.46
2019-03-04T12:42:36.058Z,8.55
2019-03-04T12:45:14.399Z,8.83
2019-03-04T12:47:49.364Z,8.61
2019-03-04T12:50:25.912Z,8.11
2019-03-04T12:53:01.316Z,7.87
2019-03-04T12:55:36.127Z,7.77
2019-03-04T12:58:11.058Z,7.85
2019-03-04T13:00:46.336Z,7.96
2019-03-04T13:03:25.596Z,8.08
2019-03-04T13:06:00.506Z,8.04
2019-03-04T13:08:36.236Z,7.99
2019-03-04T13:11:11.098Z,8.07
2019-03-04T13:13:45.980Z,8.13
2019-03-04T13:16:22.522Z,8.16
2019-03-04T13:18:58.285Z,8.34
2019-03-04T13:21:33.368Z,8.26
2019-03-04T13:24:08.336Z,8.44
2019-03-04T13:26:43.258Z,8.67
2019-03-04T13:29:18.220Z,8.73
2019-03-04T13:31:53.174Z,8.57
2019-03-04T13:34:28.022Z,8.41
2019-03-04T13:37:02.900Z,8.23
2019-03-04T13:39:37.724Z,8.13
2019-03-04T13:42:12.980Z,8.29
2019-03-04T13:44:47.854Z,8.43
2019-03-04T13:47:22.898Z,8.67
2019-03-04T13:49:57.755Z,9.03
2019-03-04T13:52:32.776Z,9.19
2019-03-04T13:55:07.928Z,8.99
2019-03-04T13:57:42.856Z,9.13
2019-03-04T14:00:19.822Z,8.91
2019-03-04T14:02:54.729Z,8.80
2019-03-04T14:05:29.574Z,8.78
2019-03-04T14:08:04.539Z,8.78
2019-03-04T14:10:39.355Z,8.75
2019-03-04T14:13:15.134Z,8.41
2019-03-04T14:15:50.070Z,8.08
2019-03-04T14:18:24.883Z,7.90
2019-03-04T14:20:59.762Z,7.87
2019-03-04T14:23:34.658Z,7.82
2019-03-04T14:26:09.680Z,7.79
2019-03-04T14:28:44.744Z,7.75
2019-03-04T14:31:19.584Z,7.71
2019-03-04T14:33:54.446Z,7.67
2019-03-04T14:36:29.299Z,7.68
2019-03-04T14:39:05.698Z,7.60
2019-03-04T14:41:42.185Z,7.56
2019-03-04T14:44:18.138Z,7.51
2019-03-04T14:46:53.128Z,7.53
2019-03-04T14:49:28.226Z,7.58
2019-03-04T14:52:03.393Z,7.58
2019-03-04T14:54:38.352Z,7.60
2019-03-04T14:57:13.189Z,7.58
2019-03-04T14:59:48.126Z,7.59
2019-03-04T15:02:23.016Z,7.52
2019-03-04T15:04:59.649Z,7.45
2019-03-04T15:07:34.574Z,7.35
2019-03-04T15:10:11.864Z,7.35
2019-03-04T15:12:49.697Z,7.38
2019-03-04T15:15:24.587Z,7.37
2019-03-04T15:18:00.877Z,7.40
2019-03-04T15:20:36.716Z,7.40
2019-03-04T15:23:11.569Z,7.37
2019-03-04T15:25:46.521Z,7.36
2019-03-04T15:28:22.635Z,7.43
2019-03-04T15:30:58.816Z,7.46
2019-03-04T15:33:34.658Z,7.55
2019-03-04T15:36:09.634Z,7.64
2019-03-04T15:38:44.497Z,7.70
2019-03-04T15:41:19.394Z,7.67
2019-03-04T15:43:55.351Z,7.61
2019-03-04T15:46:30.275Z,7.62
2019-03-04T15:50:11.278Z,7.62
2019-03-04T15:53:56.901Z,7.59
2019-03-04T15:56:59.873Z,7.50
2019-03-04T15:59:36.497Z,7.76
2019-03-04T16:02:14.267Z,7.68
2019-03-04T16:04:49.287Z,7.77
2019-03-04T16:07:24.256Z,7.85
2019-03-04T16:09:59.162Z,7.90
2019-03-04T16:12:35.844Z,7.92
2019-03-04T16:15:13.998Z,7.95
2019-03-04T16:17:49.304Z,8.08
2019-03-04T16:20:28.254Z,7.96
2019-03-04T16:23:03.160Z,7.51
2019-03-04T16:25:38.425Z,7.40
2019-03-04T16:28:19.687Z,7.43
2019-03-04T16:31:10.004Z,7.50
2019-03-04T16:34:08.174Z,7.59
2019-03-04T16:36:43.469Z,7.65
2019-03-04T16:39:21.332Z,7.88
2019-03-04T16:41:56.276Z,7.94
2019-03-04T16:44:31.261Z,8.00
2019-03-04T16:47:06.720Z,8.00
2019-03-04T16:49:41.813Z,8.11
2019-03-04T16:52:17.917Z,8.17
2019-03-04T16:54:57.460Z,8.18
2019-03-04T16:57:32.480Z,8.23
2019-03-04T17:00:58.327Z,8.22
2019-03-04T17:03:49.943Z,8.20
2019-03-04T17:06:34.795Z,8.22
2019-03-04T17:09:18.879Z,8.23
2019-03-04T17:11:53.888Z,8.21
2019-03-04T17:14:29.163Z,8.16
2019-03-04T17:17:11.210Z,8.17
2019-03-04T17:19:46.157Z,8.17
2019-03-04T17:22:21.994Z,8.12
2019-03-04T17:24:56.932Z,8.15
2019-03-04T17:27:31.859Z,8.18
2019-03-04T17:30:09.670Z,8.25
2019-03-04T17:32:44.888Z,8.24
2019-03-04T17:35:20.135Z,8.24
2019-03-04T17:37:55.115Z,8.24
2019-03-04T17:40:33.084Z,8.26
2019-03-04T17:43:08.051Z,8.26
2019-03-04T17:45:42.953Z,8.25
2019-03-04T17:48:17.944Z,8.19
2019-03-04T17:51:08.609Z,8.22
2019-03-04T17:53:45.536Z,8.21
2019-03-04T17:56:22.119Z,8.28
2019-03-04T17:58:57.390Z,8.13
2019-03-04T18:01:32.554Z,8.05
2019-03-04T18:04:07.443Z,7.97
2019-03-04T18:06:42.658Z,7.97
2019-03-04T18:09:19.187Z,7.91
2019-03-04T18:11:54.160Z,7.88
2019-03-04T18:14:29.074Z,7.90
2019-03-04T18:17:20.652Z,7.99
2019-03-04T18:19:57.015Z,8.10
2019-03-04T18:22:33.488Z,8.11
2019-03-04T18:25:20.460Z,8.16
2019-03-04T18:28:00.107Z,8.25
2019-03-04T18:31:21.936Z,8.24
2019-03-04T18:35:03.282Z,8.28
2019-03-04T18:38:12.413Z,8.29
2019-03-04T18:41:28.049Z,8.14
2019-03-04T18:48:57.309Z,8.03
2019-03-04T18:51:37.349Z,7.92
2019-03-04T18:54:20.172Z,7.84
2019-03-04T18:56:56.663Z,7.81
2019-03-04T18:59:33.559Z,7.81
2019-03-04T19:02:09.163Z,7.77
2019-03-04T19:04:44.127Z,7.76
2019-03-04T19:07:19.022Z,7.83
2019-03-04T19:09:53.984Z,7.84
2019-03-04T19:12:28.965Z,7.84
2019-03-04T19:15:03.816Z,7.80
2019-03-04T19:17:38.744Z,7.79
2019-03-04T19:20:15.624Z,7.81
2019-03-04T19:22:50.581Z,7.82
2019-03-04T19:25:25.592Z,7.78
2019-03-04T19:28:00.511Z,7.73
2019-03-04T19:30:36.388Z,7.67
2019-03-04T19:33:11.339Z,7.70
2019-03-04T19:35:46.256Z,7.71
2019-03-04T19:38:21.193Z,7.73
2019-03-04T19:40:56.066Z,7.73
2019-03-04T19:43:33.076Z,7.81
2019-03-04T19:46:07.616Z,7.77
2019-03-04T19:48:42.504Z,7.78
2019-03-04T19:51:20.458Z,7.69
2019-03-04T19:55:12.803Z,7.66
2019-03-04T19:57:51.732Z,7.69
2019-03-04T20:00:28.132Z,7.62
2019-03-04T20:03:03.236Z,7.56
2019-03-04T20:05:38.207Z,7.47
2019-03-04T20:08:13.287Z,7.37
2019-03-04T20:10:48.252Z,7.34
2019-03-04T20:13:23.172Z,7.28
2019-03-04T20:15:58.157Z,7.30
2019-03-04T20:18:33.998Z,7.25
2019-03-04T20:21:08.916Z,7.29
2019-03-04T20:23:46.513Z,7.25
2019-03-04T20:26:21.492Z,7.28
2019-03-04T20:28:56.396Z,7.30
2019-03-04T20:31:31.269Z,7.23
2019-03-04T20:34:07.333Z,7.21
2019-03-04T20:36:42.387Z,7.18
2019-03-04T20:39:17.990Z,7.09
2019-03-04T20:41:52.975Z,7.08
2019-03-04T20:44:27.806Z,7.12
2019-03-04T20:47:02.704Z,7.08
2019-03-04T20:49:37.624Z,7.04
2019-03-04T20:52:12.530Z,6.97
2019-03-04T20:54:47.489Z,7.00
2019-03-04T20:57:22.383Z,6.98
2019-03-04T20:59:57.331Z,7.04
2019-03-04T21:02:33.019Z,7.05
2019-03-04T21:05:10.125Z,7.03
2019-03-04T21:07:46.167Z,7.00
2019-03-04T21:10:21.204Z,6.95
2019-03-04T21:12:59.111Z,6.94
2019-03-04T21:15:34.159Z,6.93
2019-03-04T21:18:14.405Z,6.93
2019-03-04T21:20:49.460Z,6.93
2019-03-04T21:23:24.603Z,6.91
2019-03-04T21:26:19.386Z,6.94
2019-03-04T21:30:06.099Z,6.94
2019-03-04T21:33:14.916Z,6.90
2019-03-04T21:36:28.623Z,6.86
2019-03-04T21:39:04.355Z,6.83
2019-03-04T21:42:15.481Z,6.83
2019-03-04T21:45:47.677Z,6.85
2019-03-04T21:48:50.615Z,6.92
2019-03-04T21:52:19.552Z,6.89
2019-03-04T21:54:45.446Z,6.79
2019-03-04T21:57:41.642Z,6.77
2019-03-04T22:00:23.036Z,6.84
2019-03-04T22:03:18.621Z,6.95
2019-03-04T22:05:53.755Z,7.02
2019-03-04T22:08:28.928Z,7.04
2019-03-04T22:11:05.130Z,7.11
2019-03-04T22:13:40.522Z,7.18
2019-03-04T22:16:15.448Z,7.13
2019-03-04T22:18:50.387Z,7.07
2019-03-04T22:21:25.377Z,7.11
2019-03-04T22:24:41.341Z,7.19
2019-03-04T22:27:36.221Z,7.18
2019-03-04T22:30:15.626Z,7.08
2019-03-04T22:32:50.520Z,7.10
2019-03-04T22:35:25.468Z,7.11
2019-03-04T22:38:00.366Z,7.13
2019-03-04T22:40:36.373Z,7.24
2019-03-04T22:43:11.386Z,7.17
2019-03-04T22:45:50.014Z,7.22
2019-03-04T22:48:24.870Z,7.25
2019-03-04T22:50:59.843Z,7.19
2019-03-04T22:53:34.846Z,7.22
2019-03-04T22:56:09.776Z,7.16
2019-03-04T22:58:44.660Z,7.16
2019-03-04T23:01:53.905Z,7.14
2019-03-04T23:05:08.271Z,7.12
2019-03-04T23:07:50.006Z,7.13
2019-03-04T23:10:49.333Z,7.16
2019-03-04T23:14:02.705Z,7.07
2019-03-04T23:16:37.971Z,7.19
2019-03-04T23:19:12.804Z,7.12
2019-03-04T23:21:47.700Z,7.10
2019-03-04T23:24:22.588Z,7.07
2019-03-04T23:26:57.834Z,7.23
2019-03-04T23:29:32.832Z,7.38
2019-03-04T23:32:10.738Z,7.41
2019-03-04T23:34:45.566Z,7.49
2019-03-04T23:37:20.429Z,7.62
2019-03-04T23:39:55.156Z,7.63
2019-03-04T23:42:29.934Z,7.61
2019-03-04T23:45:04.816Z,7.60
2019-03-04T23:47:39.624Z,7.55
2019-03-04T23:50:21.427Z,7.53
2019-03-04T23:52:58.418Z,7.59
2019-03-04T23:55:33.381Z,7.57
2019-03-04T23:58:08.174Z,7.35
